Time;durP1;ratioP1;P1;durP2;ratioP2;P2;SDS_P1;SDS_P2;PMS_P1;PMS_P2;Temp;Humidity;BMP_temperature;BMP_pressure;BME280_temperature;BME280_humidity;BME280_pressure;Samples;Min_cycle;Max_cycle;Signal;HPM_P1;HPM_P2
2021/11/05 00:00:24;;;;;;;12.30;7.90;;;;;;;8.15;100.00;100178.63;5173598;28;20268;-79
2021/11/05 00:02:57;;;;;;;13.48;7.95;;;;;;;8.17;100.00;100175.97;5174464;28;20026;-79
2021/11/05 00:05:29;;;;;;;15.45;8.80;;;;;;;8.18;100.00;100182.94;5154835;28;20037;-78
2021/11/05 00:08:03;;;;;;;15.07;7.93;;;;;;;8.12;100.00;100178.72;5176035;28;20033;-79
2021/11/05 00:10:35;;;;;;;14.00;7.65;;;;;;;8.04;100.00;100185.09;5177349;28;20030;-79
2021/11/05 00:13:06;;;;;;;13.93;7.95;;;;;;;8.15;100.00;100185.56;5159691;28;20026;-78
2021/11/05 00:15:37;;;;;;;12.82;7.53;;;;;;;8.15;100.00;100189.03;5178320;28;20125;-79
2021/11/05 00:18:07;;;;;;;14.20;8.00;;;;;;;8.09;100.00;100194.44;5178518;28;20037;-79
2021/11/05 00:20:38;;;;;;;16.13;7.90;;;;;;;8.17;100.00;100197.66;5160339;28;20041;-79
2021/11/05 00:23:08;;;;;;;13.82;8.50;;;;;;;8.08;100.00;100203.13;5161101;28;20424;-79
2021/11/05 00:25:39;;;;;;;18.17;8.60;;;;;;;8.17;100.00;100205.44;5165268;28;20042;-78
2021/11/05 00:28:09;;;;;;;14.52;8.20;;;;;;;8.05;100.00;100205.84;5177895;28;20034;-80
2021/11/05 00:30:41;;;;;;;13.35;8.18;;;;;;;8.15;100.00;100214.19;5159954;28;20065;-79
2021/11/05 00:33:11;;;;;;;15.30;8.63;;;;;;;8.21;100.00;100219.25;5160406;28;20105;-79
2021/11/05 00:35:41;;;;;;;15.20;8.73;;;;;;;8.22;100.00;100216.59;5175607;28;20033;-80
2021/11/05 00:38:12;;;;;;;15.27;8.70;;;;;;;8.25;100.00;100224.31;5178296;28;20207;-78
2021/11/05 00:40:42;;;;;;;14.27;9.35;;;;;;;8.25;100.00;100226.91;5162255;28;20033;-80
2021/11/05 00:43:12;;;;;;;13.20;8.95;;;;;;;8.12;100.00;100235.13;5177930;28;20081;-79
2021/11/05 00:45:43;;;;;;;14.43;9.35;;;;;;;8.18;100.00;100230.63;5158415;28;20025;-79
2021/11/05 00:48:13;;;;;;;16.25;9.90;;;;;;;8.20;100.00;100238.38;5176426;28;20030;-79
2021/11/05 00:50:44;;;;;;;16.30;10.55;;;;;;;8.18;100.00;100238.41;5176164;28;20052;-80
2021/11/05 00:53:14;;;;;;;16.25;10.18;;;;;;;8.19;100.00;100240.13;5159910;28;20392;-79
2021/11/05 00:55:44;;;;;;;19.38;11.23;;;;;;;8.15;100.00;100241.09;5168005;28;20033;-79
2021/11/05 00:58:16;;;;;;;20.27;11.95;;;;;;;8.12;100.00;100246.41;5154369;28;20026;-80
2021/11/05 01:00:46;;;;;;;21.33;12.15;;;;;;;8.18;100.00;100250.59;5163443;28;20044;-80
2021/11/05 01:03:17;;;;;;;20.33;12.25;;;;;;;8.12;100.00;100254.19;5159702;28;20022;-80
2021/11/05 01:05:47;;;;;;;21.20;13.00;;;;;;;8.24;100.00;100255.59;5176872;28;20026;-78
2021/11/05 01:08:18;;;;;;;19.98;12.55;;;;;;;8.20;100.00;100262.66;5160125;28;20022;-79
2021/11/05 01:10:48;;;;;;;21.23;13.18;;;;;;;8.22;100.00;100258.25;5177900;28;20026;-80
2021/11/05 01:13:19;;;;;;;21.52;12.25;;;;;;;8.30;100.00;100256.28;5181566;28;20026;-79
2021/11/05 01:15:49;;;;;;;19.70;12.40;;;;;;;8.30;100.00;100260.59;5161476;28;20070;-79
2021/11/05 01:18:21;;;;;;;22.70;13.85;;;;;;;8.10;100.00;100252.53;5159732;28;20026;-80
2021/11/05 01:20:51;;;;;;;23.27;14.45;;;;;;;8.13;100.00;100261.09;5161566;28;20029;-79
2021/11/05 01:23:22;;;;;;;24.25;13.80;;;;;;;8.09;100.00;100269.91;5156789;28;20046;-78
2021/11/05 01:25:52;;;;;;;24.48;13.40;;;;;;;8.20;100.00;100269.63;5165811;28;20081;-79
2021/11/05 01:28:23;;;;;;;22.23;14.52;;;;;;;8.21;100.00;100277.34;5155593;28;20372;-79
2021/11/05 01:30:54;;;;;;;21.05;13.50;;;;;;;8.19;100.00;100276.56;5180573;28;20101;-80
2021/11/05 01:33:24;;;;;;;24.83;14.88;;;;;;;8.14;100.00;100269.75;5174766;28;20114;-80
2021/11/05 01:35:55;;;;;;;27.40;15.32;;;;;;;8.23;100.00;100280.75;5160454;28;20415;-79
2021/11/05 01:38:25;;;;;;;26.40;14.90;;;;;;;8.25;100.00;100289.38;5177451;28;20060;-78
2021/11/05 01:40:56;;;;;;;24.73;15.52;;;;;;;8.21;100.00;100287.78;5163387;28;20056;-79
2021/11/05 01:43:26;;;;;;;24.92;14.95;;;;;;;8.23;100.00;100296.38;5167755;28;20498;-79
2021/11/05 01:45:56;;;;;;;28.42;16.00;;;;;;;8.23;100.00;100296.38;5158382;28;20034;-79
2021/11/05 01:48:27;;;;;;;27.48;16.23;;;;;;;8.26;100.00;100296.31;5179095;28;20379;-79
2021/11/05 01:50:57;;;;;;;27.23;16.02;;;;;;;8.33;100.00;100303.03;5157148;28;20030;-78
2021/11/05 01:53:28;;;;;;;28.23;15.65;;;;;;;8.26;100.00;100306.72;5203816;23;20058;-80
2021/11/05 01:55:58;;;;;;;27.80;16.00;;;;;;;8.30;100.00;100308.34;5185237;28;20026;-80
2021/11/05 01:58:28;;;;;;;27.98;16.42;;;;;;;8.24;100.00;100315.47;5192519;28;20026;-80
2021/11/05 02:00:59;;;;;;;27.20;17.10;;;;;;;8.39;100.00;100315.84;5195592;28;20692;-80
2021/11/05 02:03:29;;;;;;;26.48;16.25;;;;;;;8.15;100.00;100319.16;5192529;28;20045;-80
2021/11/05 02:06:01;;;;;;;27.20;16.67;;;;;;;8.25;100.00;100331.03;5194759;28;20029;-80
2021/11/05 02:08:34;;;;;;;28.70;16.63;;;;;;;8.30;100.00;100331.75;5193912;28;20111;-79
2021/11/05 02:11:05;;;;;;;32.45;17.55;;;;;;;8.23;100.00;100332.00;5195024;28;20025;-79
2021/11/05 02:13:40;;;;;;;30.80;18.33;;;;;;;8.32;100.00;100335.16;5195399;28;20037;-80
2021/11/05 02:16:12;;;;;;;;;;;;;;;8.32;100.00;100342.09;5191103;28;20353;-80
2021/11/05 02:18:44;;;;;;;27.40;16.17;;;;;;;8.38;100.00;100344.56;5191979;28;19917;-80
2021/11/05 02:21:18;;;;;;;27.48;16.80;;;;;;;8.41;100.00;100353.09;5192973;28;20040;-80
2021/11/05 02:23:48;;;;;;;30.65;18.05;;;;;;;8.23;100.00;100355.41;5189281;28;20025;-78
2021/11/05 02:26:18;;;;;;;30.48;17.80;;;;;;;8.23;100.00;100352.81;5183663;28;20026;-78
2021/11/05 02:28:48;;;;;;;30.17;17.63;;;;;;;8.28;100.00;100357.00;5195931;28;20026;-79
2021/11/05 02:31:19;;;;;;;31.27;17.50;;;;;;;8.31;100.00;100364.72;5191845;28;20030;-78
2021/11/05 02:33:49;;;;;;;29.90;17.70;;;;;;;8.31;100.00;100364.72;5192859;28;20041;-79
2021/11/05 02:36:20;;;;;;;31.95;16.90;;;;;;;8.27;100.00;100370.91;5188249;28;20038;-79
2021/11/05 02:38:50;;;;;;;32.53;18.25;;;;;;;8.19;100.00;100366.81;5193097;28;20112;-79
2021/11/05 02:41:21;;;;;;;30.52;17.23;;;;;;;8.27;100.00;100368.31;5186080;28;20028;-79
2021/11/05 02:43:53;;;;;;;33.13;18.10;;;;;;;8.29;100.00;100370.84;5192950;28;20116;-79
2021/11/05 02:46:23;;;;;;;31.27;18.52;;;;;;;8.27;100.00;100375.25;5190082;28;20037;-79
2021/11/05 02:48:57;;;;;;;32.25;17.70;;;;;;;8.25;100.00;100387.47;5193569;28;20029;-80
2021/11/05 02:51:27;;;;;;;28.45;17.17;;;;;;;8.34;100.00;100392.38;5186786;28;20032;-79
2021/11/05 02:53:58;;;;;;;32.08;18.42;;;;;;;8.31;100.00;100393.34;5188322;28;20026;-80
2021/11/05 02:56:29;;;;;;;34.13;18.83;;;;;;;8.29;100.00;100386.47;5181113;28;20040;-80
2021/11/05 02:58:59;;;;;;;30.35;17.95;;;;;;;8.37;100.00;100385.34;5192855;28;20467;-79
2021/11/05 03:01:30;;;;;;;29.90;17.88;;;;;;;8.31;100.00;100387.28;5188824;28;20021;-79
2021/11/05 03:04:03;;;;;;;30.35;17.13;;;;;;;8.27;100.00;100402.16;5192668;28;20416;-79
2021/11/05 03:06:38;;;;;;;26.92;17.00;;;;;;;8.20;100.00;100397.16;5190263;28;20025;-79
2021/11/05 03:09:11;;;;;;;30.52;17.55;;;;;;;8.27;100.00;100401.28;5193711;28;20026;-81
2021/11/05 03:11:42;;;;;;;27.67;17.02;;;;;;;8.35;100.00;100402.75;5192185;28;20041;-79
2021/11/05 03:14:13;;;;;;;31.80;17.88;;;;;;;8.33;100.00;100406.28;5190972;28;20030;-80
2021/11/05 03:16:43;;;;;;;31.30;17.35;;;;;;;8.29;100.00;100400.34;5190446;28;20242;-80
2021/11/05 03:19:14;;;;;;;31.20;17.75;;;;;;;8.25;100.00;100408.28;5191462;28;20392;-79
2021/11/05 03:21:44;;;;;;;34.53;17.88;;;;;;;8.33;100.00;100422.78;5191106;28;20047;-80
2021/11/05 03:24:14;;;;;;;34.78;19.67;;;;;;;8.34;100.00;100421.88;5185812;28;20057;-79
2021/11/05 03:26:45;;;;;;;29.73;16.90;;;;;;;8.27;100.00;100428.19;5183039;28;20038;-79
2021/11/05 03:29:16;;;;;;;30.08;17.63;;;;;;;8.37;100.00;100429.59;5189675;28;20036;-79
2021/11/05 03:31:46;;;;;;;30.08;18.02;;;;;;;8.46;100.00;100439.78;5191310;28;20028;-80
2021/11/05 03:34:16;;;;;;;28.45;16.77;;;;;;;8.27;100.00;100437.72;5189926;28;20032;-80
2021/11/05 03:36:47;;;;;;;31.00;17.85;;;;;;;8.30;100.00;100446.31;5190382;28;20099;-80
2021/11/05 03:39:17;;;;;;;29.27;17.88;;;;;;;8.33;100.00;100456.63;5193701;28;20028;-80
2021/11/05 03:41:48;;;;;;;34.65;18.45;;;;;;;8.39;100.00;100453.00;5191027;28;20103;-79
2021/11/05 03:44:18;;;;;;;33.38;18.52;;;;;;;8.44;100.00;100461.53;5191394;28;20028;-79
2021/11/05 03:46:49;;;;;;;32.50;17.75;;;;;;;8.43;100.00;100460.69;5187896;28;20026;-80
2021/11/05 03:49:19;;;;;;;31.42;18.15;;;;;;;8.36;100.00;100469.56;5192002;28;20109;-80
2021/11/05 03:51:49;;;;;;;32.22;18.33;;;;;;;8.30;100.00;100474.94;5189236;28;20041;-80
2021/11/05 03:54:19;;;;;;;31.50;18.17;;;;;;;8.42;100.00;100471.13;5184832;28;20475;-79
2021/11/05 03:56:50;;;;;;;31.63;18.50;;;;;;;8.23;100.00;100478.59;5183359;28;20033;-79
2021/11/05 03:59:20;;;;;;;33.42;18.05;;;;;;;8.24;100.00;100482.06;5189265;28;20100;-79
2021/11/05 04:01:50;;;;;;;33.90;18.67;;;;;;;8.36;100.00;100489.56;5191682;28;20033;-79
2021/11/05 04:04:21;;;;;;;30.48;17.75;;;;;;;8.39;100.00;100489.47;5188601;28;20057;-80
2021/11/05 04:06:51;;;;;;;33.25;19.05;;;;;;;8.36;100.00;100495.59;5190406;28;20479;-79
2021/11/05 04:09:21;;;;;;;29.65;17.13;;;;;;;8.24;100.00;100505.50;5194240;28;20025;-80
2021/11/05 04:11:52;;;;;;;31.63;18.65;;;;;;;8.21;100.00;100500.38;5190975;28;20527;-80
2021/11/05 04:14:22;;;;;;;29.63;18.33;;;;;;;8.26;100.00;100512.38;5191572;28;20112;-80
2021/11/05 04:16:52;;;;;;;31.25;17.83;;;;;;;8.24;100.00;100519.34;5188711;28;20427;-80
2021/11/05 04:19:22;;;;;;;30.38;17.02;;;;;;;8.25;100.00;100515.03;5192419;28;20056;-80
2021/11/05 04:21:53;;;;;;;33.38;18.52;;;;;;;8.21;100.00;100516.84;5188974;28;20029;-80
2021/11/05 04:24:23;;;;;;;31.70;16.83;;;;;;;8.20;100.00;100528.16;5183038;28;20530;-79
2021/11/05 04:26:53;;;;;;;29.92;16.52;;;;;;;8.21;100.00;100532.47;5190733;28;20088;-80
2021/11/05 04:29:24;;;;;;;31.90;17.40;;;;;;;8.20;100.00;100537.72;5191956;28;20025;-79
2021/11/05 04:31:54;;;;;;;32.13;16.70;;;;;;;8.14;100.00;100541.31;5187773;28;20503;-80
2021/11/05 04:34:24;;;;;;;30.35;17.10;;;;;;;8.14;100.00;100541.31;5191748;28;20112;-80
2021/11/05 04:36:55;;;;;;;31.05;17.15;;;;;;;8.11;100.00;100546.59;5187715;28;20053;-80
2021/11/05 04:39:26;;;;;;;30.25;17.08;;;;;;;8.17;100.00;100551.63;5179662;28;20120;-79
2021/11/05 04:41:56;;;;;;;31.23;16.30;;;;;;;8.11;100.00;100551.81;5187606;28;20022;-80
2021/11/05 04:44:27;;;;;;;30.92;17.02;;;;;;;8.12;100.00;100558.72;5187653;28;20373;-80
2021/11/05 04:46:57;;;;;;;33.72;17.35;;;;;;;8.08;100.00;100554.44;5191381;28;20084;-80
2021/11/05 04:49:27;;;;;;;34.72;18.27;;;;;;;8.03;100.00;100563.31;5188440;28;20026;-80
2021/11/05 04:51:58;;;;;;;32.60;17.40;;;;;;;8.10;100.00;100570.91;5191681;28;20028;-79
2021/11/05 04:54:28;;;;;;;35.47;17.25;;;;;;;8.02;100.00;100572.84;5182349;28;20060;-79
2021/11/05 04:56:58;;;;;;;33.95;17.67;;;;;;;8.13;100.00;100578.63;5182213;28;20039;-80
2021/11/05 04:59:29;;;;;;;35.97;18.42;;;;;;;8.13;100.00;100575.16;5190894;28;20034;-80
2021/11/05 05:01:59;;;;;;;34.08;17.10;;;;;;;8.07;100.00;100583.13;5194903;28;20273;-80
2021/11/05 05:04:29;;;;;;;33.10;17.65;;;;;;;8.00;100.00;100587.63;5191489;28;20034;-80
2021/11/05 05:07:00;;;;;;;31.35;17.48;;;;;;;8.04;100.00;100585.81;5192662;28;20471;-80
2021/11/05 05:09:30;;;;;;;34.67;17.58;;;;;;;8.06;100.00;100595.28;5197070;28;20017;-79
2021/11/05 05:12:00;;;;;;;35.67;17.33;;;;;;;8.12;100.00;100600.34;5192544;28;20407;-79
2021/11/05 05:14:30;;;;;;;33.38;17.35;;;;;;;7.99;100.00;100604.16;5193988;28;20025;-79
2021/11/05 05:17:01;;;;;;;33.15;16.83;;;;;;;8.03;100.00;100595.38;5191797;28;20026;-79
2021/11/05 05:19:32;;;;;;;29.83;16.55;;;;;;;8.06;100.00;100597.88;5193265;28;20451;-80
2021/11/05 05:22:03;;;;;;;34.63;17.70;;;;;;;8.04;100.00;100622.25;5188448;28;20026;-80
2021/11/05 05:24:34;;;;;;;33.30;16.95;;;;;;;8.09;100.00;100617.78;5184617;28;20438;-80
2021/11/05 05:27:05;;;;;;;33.30;16.42;;;;;;;7.98;100.00;100618.06;5186056;28;20235;-80
2021/11/05 05:29:35;;;;;;;34.17;17.40;;;;;;;8.07;100.00;100617.81;5190563;28;20034;-80
2021/11/05 05:32:06;;;;;;;32.35;17.52;;;;;;;8.09;100.00;100621.25;5188674;28;20036;-80
2021/11/05 05:34:36;;;;;;;33.95;16.77;;;;;;;8.16;100.00;100633.22;5188920;28;20623;-80
2021/11/05 05:37:06;;;;;;;33.30;16.58;;;;;;;8.17;100.00;100632.31;5187015;28;20064;-79
2021/11/05 05:39:37;;;;;;;33.90;17.17;;;;;;;8.15;100.00;100628.91;5179125;28;20038;-79
2021/11/05 05:42:07;;;;;;;33.33;17.35;;;;;;;8.09;100.00;100626.47;5183294;28;20022;-79
2021/11/05 05:44:37;;;;;;;32.00;16.95;;;;;;;8.07;100.00;100638.63;5182662;28;20085;-79
2021/11/05 05:47:08;;;;;;;35.33;15.93;;;;;;;8.05;100.00;100645.63;5183541;28;20022;-78
2021/11/05 05:49:39;;;;;;;39.00;17.00;;;;;;;8.01;100.00;100644.00;5191003;28;20084;-80
2021/11/05 05:52:09;;;;;;;37.28;17.55;;;;;;;8.03;100.00;100641.38;5192659;28;20107;-80
2021/11/05 05:54:39;;;;;;;35.00;17.33;;;;;;;8.03;100.00;100646.56;5186225;28;20173;-80
2021/11/05 05:57:09;;;;;;;37.17;18.88;;;;;;;7.96;100.00;100648.47;5187400;28;20040;-79
2021/11/05 05:59:41;;;;;;;34.50;17.73;;;;;;;8.02;100.00;100645.72;5192306;28;20025;-79
2021/11/05 06:02:11;;;;;;;35.47;17.65;;;;;;;8.08;100.00;100660.31;5187392;28;20101;-79
2021/11/05 06:04:41;;;;;;;31.25;16.98;;;;;;;8.04;100.00;100659.53;5191810;28;20116;-80
2021/11/05 06:07:12;;;;;;;30.20;16.25;;;;;;;8.03;100.00;100660.44;5192667;28;20083;-79
2021/11/05 06:09:42;;;;;;;34.15;17.45;;;;;;;8.07;100.00;100672.47;5189216;28;20451;-80
2021/11/05 06:12:12;;;;;;;31.42;16.83;;;;;;;8.02;100.00;100674.34;5190134;28;20071;-80
2021/11/05 06:14:42;;;;;;;34.78;16.58;;;;;;;8.21;100.00;100678.22;5192630;28;20042;-80
2021/11/05 06:17:15;;;;;;;34.60;16.80;;;;;;;8.09;100.00;100683.72;5185654;28;20097;-80
2021/11/05 06:19:45;;;;;;;33.97;16.75;;;;;;;8.04;100.00;100685.56;5188434;28;20079;-80
2021/11/05 06:22:16;;;;;;;32.17;16.60;;;;;;;7.98;100.00;100695.25;5182333;28;20083;-80
2021/11/05 06:24:46;;;;;;;28.73;15.32;;;;;;;8.02;100.00;100697.75;5176462;28;20436;-80
2021/11/05 06:27:17;;;;;;;31.52;16.42;;;;;;;7.98;100.00;100698.72;5179153;28;20479;-80
2021/11/05 06:29:47;;;;;;;36.92;16.98;;;;;;;8.08;100.00;100700.19;5180447;28;20021;-78
2021/11/05 06:32:17;;;;;;;29.35;15.82;;;;;;;7.94;100.00;100706.63;5190064;28;20021;-78
2021/11/05 06:34:48;;;;;;;31.98;16.17;;;;;;;8.05;100.00;100715.06;5188792;28;20037;-80
2021/11/05 06:37:19;;;;;;;32.65;16.70;;;;;;;7.94;100.00;100715.31;5186501;28;20100;-81
2021/11/05 06:39:50;;;;;;;31.40;16.42;;;;;;;8.00;100.00;100722.09;5192510;28;20029;-80
2021/11/05 06:42:21;;;;;;;35.30;16.27;;;;;;;8.09;100.00;100727.97;5185566;28;20029;-80
2021/11/05 06:44:52;;;;;;;28.77;15.73;;;;;;;8.07;100.00;100731.50;5180116;28;20097;-80
2021/11/05 06:47:22;;;;;;;32.33;16.73;;;;;;;8.16;100.00;100737.34;5187182;28;20447;-80
2021/11/05 06:49:53;;;;;;;27.63;14.45;;;;;;;8.08;100.00;100746.22;5184314;28;20476;-81
2021/11/05 06:52:23;;;;;;;28.17;15.35;;;;;;;8.15;100.00;100755.56;5187168;28;20025;-79
2021/11/05 06:54:53;;;;;;;27.63;14.65;;;;;;;8.07;100.00;100763.56;5184681;28;20435;-80
2021/11/05 06:57:24;;;;;;;27.73;15.15;;;;;;;8.05;100.00;100762.75;5181171;28;20029;-80
2021/11/05 06:59:56;;;;;;;28.40;14.95;;;;;;;8.10;100.00;100773.06;5183245;28;20091;-80
2021/11/05 07:02:27;;;;;;;30.17;14.50;;;;;;;8.03;100.00;100772.34;5183131;28;20501;-80
2021/11/05 07:04:57;;;;;;;28.30;14.77;;;;;;;8.06;100.00;100774.88;5186364;28;20108;-80
2021/11/05 07:07:27;;;;;;;30.05;14.73;;;;;;;8.11;100.00;100773.03;5178109;28;20471;-80
2021/11/05 07:09:57;;;;;;;29.63;15.07;;;;;;;8.06;100.00;100774.03;5183178;28;20041;-78
2021/11/05 07:12:28;;;;;;;29.63;14.23;;;;;;;8.09;100.00;100784.38;5191314;28;20033;-80
2021/11/05 07:14:59;;;;;;;27.95;14.25;;;;;;;8.04;100.00;100794.88;5187372;28;20433;-79
2021/11/05 07:17:29;;;;;;;29.00;13.90;;;;;;;8.12;100.00;100792.97;5187473;28;20053;-80
2021/11/05 07:19:59;;;;;;;26.40;13.43;;;;;;;8.19;100.00;100793.72;5188931;28;20036;-79
2021/11/05 07:22:29;;;;;;;27.85;13.80;;;;;;;8.15;100.00;100807.63;5187029;28;20036;-80
2021/11/05 07:25:00;;;;;;;26.38;13.40;;;;;;;8.19;100.00;100810.19;5180039;28;20060;-78
2021/11/05 07:27:30;;;;;;;25.95;13.63;;;;;;;8.28;100.00;100809.13;5189112;28;20057;-78
2021/11/05 07:30:00;;;;;;;23.65;13.25;;;;;;;8.26;100.00;100822.19;5191146;28;20041;-78
2021/11/05 07:32:31;;;;;;;24.70;12.88;;;;;;;8.27;100.00;100816.09;5188203;28;20029;-78
2021/11/05 07:35:03;;;;;;;27.30;13.30;;;;;;;8.31;100.00;100827.28;5188973;28;20021;-80
2021/11/05 07:37:33;;;;;;;27.38;13.00;;;;;;;8.34;100.00;100824.59;5183946;28;20021;-79
2021/11/05 07:40:04;;;;;;;24.67;13.20;;;;;;;8.37;100.00;100830.59;5177335;28;20034;-81
2021/11/05 07:42:38;;;;;;;22.17;12.80;;;;;;;8.36;100.00;100833.25;5184409;28;20562;-80
2021/11/05 07:45:10;;;;;;;25.25;12.90;;;;;;;8.38;100.00;100837.50;5188066;28;20072;-78
2021/11/05 07:47:42;;;;;;;24.20;11.82;;;;;;;8.35;100.00;100837.59;5189726;28;20029;-78
2021/11/05 07:50:15;;;;;;;24.10;12.23;;;;;;;8.50;100.00;100846.78;5191254;28;20040;-80
2021/11/05 07:52:45;;;;;;;24.45;12.80;;;;;;;8.48;100.00;100849.44;5196451;23;20042;-79
2021/11/05 07:55:16;;;;;;;25.58;12.90;;;;;;;8.68;100.00;100856.78;5185476;28;20026;-80
2021/11/05 07:57:46;;;;;;;29.80;13.35;;;;;;;8.58;100.00;100861.34;5189094;28;20089;-79
2021/11/05 08:00:17;;;;;;;24.08;12.70;;;;;;;8.65;100.00;100862.06;5191248;28;20383;-80
2021/11/05 08:02:47;;;;;;;27.38;12.52;;;;;;;8.60;100.00;100859.59;5192262;28;20606;-80
2021/11/05 08:05:18;;;;;;;24.80;12.73;;;;;;;8.65;100.00;100867.28;5194325;28;20446;-80
2021/11/05 08:07:48;;;;;;;24.85;12.50;;;;;;;8.53;100.00;100884.06;5195965;28;20207;-78
2021/11/05 08:10:21;;;;;;;22.95;12.27;;;;;;;8.67;100.00;100876.78;5192341;28;20025;-80
2021/11/05 08:12:52;;;;;;;27.00;12.88;;;;;;;8.63;100.00;100888.19;5192924;28;20156;-79
2021/11/05 08:15:22;;;;;;;28.80;14.10;;;;;;;8.64;100.00;100892.50;5191304;28;20025;-80
2021/11/05 08:17:53;;;;;;;25.13;12.43;;;;;;;8.65;100.00;100891.59;5193939;28;20023;-80
2021/11/05 08:20:23;;;;;;;23.50;12.73;;;;;;;8.61;100.00;100902.13;5191279;28;20026;-79
2021/11/05 08:22:54;;;;;;;23.65;12.65;;;;;;;8.55;100.00;100904.88;5195003;28;20040;-81
2021/11/05 08:25:26;;;;;;;29.35;13.25;;;;;;;8.60;100.00;100906.50;5195887;28;20091;-80
2021/11/05 08:27:57;;;;;;;28.30;14.35;;;;;;;8.69;100.00;100916.69;5185737;28;20124;-81
2021/11/05 08:30:28;;;;;;;23.73;13.20;;;;;;;8.75;100.00;100911.31;5195125;28;20379;-80
2021/11/05 08:33:00;;;;;;;25.30;13.25;;;;;;;8.75;100.00;100908.72;5196124;28;20025;-81
2021/11/05 08:35:31;;;;;;;25.73;13.77;;;;;;;8.63;100.00;100914.22;5191493;28;20422;-80
2021/11/05 08:38:04;;;;;;;32.13;13.82;;;;;;;8.82;100.00;100909.44;5193291;28;20033;-80
2021/11/05 08:40:34;;;;;;;26.45;13.35;;;;;;;8.79;100.00;100919.94;5186276;28;20305;-80
2021/11/05 08:43:04;;;;;;;27.42;12.73;;;;;;;8.83;100.00;100925.06;5190463;28;20030;-80
2021/11/05 08:45:35;;;;;;;28.80;14.35;;;;;;;8.77;100.00;100934.75;5185971;28;20029;-81
2021/11/05 08:48:05;;;;;;;23.30;12.93;;;;;;;8.78;100.00;100941.69;5186903;28;20034;-80
2021/11/05 08:50:36;;;;;;;26.45;13.48;;;;;;;8.71;100.00;100937.50;5185827;28;20025;-80
2021/11/05 08:53:07;;;;;;;24.92;13.90;;;;;;;8.74;100.00;100943.50;5184271;28;20057;-80
2021/11/05 08:55:38;;;;;;;24.70;12.40;;;;;;;8.86;100.00;100953.66;5190400;28;20034;-79
2021/11/05 08:58:09;;;;;;;26.63;13.82;;;;;;;8.68;100.00;100956.66;5194047;28;20017;-79
2021/11/05 09:00:39;;;;;;;22.98;12.57;;;;;;;8.75;100.00;100958.22;5187742;28;20040;-79
2021/11/05 09:03:10;;;;;;;29.45;14.18;;;;;;;8.71;100.00;100966.19;5193962;28;20022;-80
2021/11/05 09:05:40;;;;;;;28.55;13.63;;;;;;;8.77;100.00;100966.91;5194110;28;20033;-80
2021/11/05 09:08:11;;;;;;;23.70;12.50;;;;;;;8.77;100.00;100966.91;5198579;28;20032;-80
2021/11/05 09:10:41;;;;;;;25.73;12.52;;;;;;;8.79;100.00;100980.75;5184084;28;20034;-80
2021/11/05 09:13:12;;;;;;;23.60;12.02;;;;;;;8.85;100.00;100978.00;5187676;28;20072;-79
2021/11/05 09:15:42;;;;;;;24.77;12.95;;;;;;;8.81;100.00;100981.56;5191891;28;20033;-79
2021/11/05 09:18:13;;;;;;;26.17;12.60;;;;;;;8.85;100.00;100984.94;5193714;28;20057;-79
2021/11/05 09:20:43;;;;;;;27.92;12.65;;;;;;;8.91;100.00;100984.81;5191645;28;20499;-79
2021/11/05 09:23:14;;;;;;;25.60;12.48;;;;;;;8.85;100.00;101001.44;5188107;28;20026;-79
2021/11/05 09:25:44;;;;;;;21.75;12.27;;;;;;;8.90;100.00;101003.97;5184478;28;20084;-80
2021/11/05 09:28:14;;;;;;;23.08;12.30;;;;;;;8.88;100.00;101001.38;5195366;28;20068;-80
2021/11/05 09:30:45;;;;;;;21.10;11.75;;;;;;;8.91;100.00;101006.53;5186933;28;20076;-80
2021/11/05 09:33:18;;;;;;;22.23;11.75;;;;;;;9.07;100.00;100989.66;5191535;28;20048;-80
2021/11/05 09:35:48;;;;;;;23.88;11.77;;;;;;;8.99;100.00;101002.00;5189979;28;20033;-80
2021/11/05 09:38:19;;;;;;;21.55;11.25;;;;;;;8.99;100.00;101008.97;5195617;28;20052;-80
2021/11/05 09:40:51;;;;;;;22.98;11.85;;;;;;;9.02;100.00;101009.75;5195754;28;20029;-80
2021/11/05 09:43:21;;;;;;;22.63;11.10;;;;;;;9.05;100.00;101017.50;5194895;28;20025;-80
2021/11/05 09:45:52;;;;;;;23.15;12.13;;;;;;;9.12;100.00;101011.28;5191057;28;20048;-80
2021/11/05 09:48:23;;;;;;;23.63;11.68;;;;;;;9.12;100.00;101013.88;5197348;28;20540;-80
2021/11/05 09:50:53;;;;;;;22.25;11.65;;;;;;;9.28;100.00;101015.25;5193657;28;20102;-80
2021/11/05 09:53:26;;;;;;;22.42;11.75;;;;;;;9.24;100.00;101022.28;5192993;28;20040;-80
2021/11/05 09:55:58;;;;;;;20.92;11.30;;;;;;;9.30;100.00;101026.50;5188180;28;20033;-80
2021/11/05 09:58:28;;;;;;;26.90;12.43;;;;;;;9.09;100.00;101037.41;5199059;28;20029;-80
2021/11/05 10:00:59;;;;;;;23.83;11.35;;;;;;;9.22;100.00;101028.41;5191101;28;20284;-80
2021/11/05 10:03:30;;;;;;;20.75;11.38;;;;;;;9.28;100.00;101028.28;5198712;28;20036;-80
2021/11/05 10:06:00;;;;;;;25.75;12.80;;;;;;;9.26;100.00;101037.88;5193902;28;20479;-80
2021/11/05 10:08:33;;;;;;;31.92;15.60;;;;;;;9.49;100.00;101039.06;5198093;28;20029;-80
2021/11/05 10:11:22;;;;;;;22.52;11.68;;;;;;;9.49;100.00;101040.81;5195510;28;20017;-80
2021/11/05 10:13:54;;;;;;;19.85;11.10;;;;;;;9.54;100.00;101057.22;5193594;28;20029;-80
2021/11/05 10:16:25;;;;;;;22.35;11.73;;;;;;;9.53;100.00;101063.34;5193650;28;20025;-80
2021/11/05 10:19:05;;;;;;;17.83;10.63;;;;;;;9.39;100.00;101053.22;5196551;28;20029;-80
2021/11/05 10:21:43;;;;;;;20.27;10.30;;;;;;;9.39;100.00;101042.78;5189011;28;20042;-80
2021/11/05 10:24:18;;;;;;;19.60;10.18;;;;;;;9.53;100.00;101055.50;5191242;28;20022;-80
2021/11/05 10:26:49;;;;;;;21.75;10.68;;;;;;;9.48;100.00;101053.00;5187368;28;20021;-80
2021/11/05 10:29:33;;;;;;;18.05;10.02;;;;;;;9.41;100.00;101055.78;5188220;28;20250;-80
2021/11/05 10:32:06;;;;;;;19.30;10.18;;;;;;;9.53;100.00;101059.00;5188485;28;20162;-80
2021/11/05 10:34:52;;;;;;;20.23;9.75;;;;;;;9.52;100.00;101057.25;5194373;28;20093;-80
2021/11/05 10:37:32;;;;;;;21.45;10.20;;;;;;;9.56;100.00;101064.13;5186634;28;20366;-80
2021/11/05 10:40:04;;;;;;;18.85;8.95;;;;;;;9.66;100.00;101056.94;5184949;28;20041;-80
2021/11/05 10:42:37;;;;;;;20.83;10.18;;;;;;;9.76;100.00;101063.63;5186474;28;20030;-80
2021/11/05 10:45:18;;;;;;;19.42;10.13;;;;;;;9.66;100.00;101072.59;5190784;28;20037;-80
2021/11/05 10:47:54;;;;;;;18.40;9.70;;;;;;;9.83;100.00;101071.28;5192293;28;20029;-80
2021/11/05 10:50:33;;;;;;;20.02;10.25;;;;;;;9.77;100.00;101075.78;5192716;28;20017;-80
2021/11/05 10:53:12;;;;;;;16.00;9.13;;;;;;;9.88;100.00;101073.78;5191010;28;20025;-80
2021/11/05 10:55:43;;;;;;;17.45;9.70;;;;;;;9.93;100.00;101078.00;5181657;28;20030;-80
2021/11/05 10:58:18;;;;;;;16.08;8.90;;;;;;;9.95;100.00;101080.56;5192974;28;20028;-81
2021/11/05 11:00:51;;;;;;;16.48;8.80;;;;;;;9.97;100.00;101074.41;5193552;28;20033;-79
2021/11/05 11:03:33;;;;;;;14.82;8.40;;;;;;;9.98;100.00;101080.50;5191581;28;20048;-80
2021/11/05 11:06:10;;;;;;;13.27;7.70;;;;;;;9.80;100.00;101083.56;5179423;28;20395;-80
2021/11/05 11:08:43;;;;;;;15.85;7.35;;;;;;;9.96;100.00;101082.31;5180830;28;20077;-80
2021/11/05 11:11:19;;;;;;;14.20;7.65;;;;;;;9.93;100.00;101087.56;5182078;28;20084;-80
2021/11/05 11:13:59;;;;;;;13.55;7.13;;;;;;;9.99;100.00;101082.22;5180578;28;20040;-80
2021/11/05 11:16:32;;;;;;;14.02;7.53;;;;;;;10.05;100.00;101084.69;5201133;28;20026;-80
2021/11/05 11:19:09;;;;;;;12.07;6.57;;;;;;;9.86;100.00;101091.25;5181407;28;20589;-80
2021/11/05 11:21:42;;;;;;;12.27;7.00;;;;;;;10.00;100.00;101097.81;5183805;28;20032;-80
2021/11/05 11:24:16;;;;;;;15.35;7.90;;;;;;;10.01;100.00;101098.69;5188762;28;20025;-80
2021/11/05 11:26:48;;;;;;;12.00;6.55;;;;;;;9.83;100.00;101099.16;5184388;28;20522;-80